createdAt,value
2019-02-06T00:01:44.578Z,6.59
2019-02-06T00:04:18.838Z,6.59
2019-02-06T00:06:55.258Z,6.57
2019-02-06T00:09:26.313Z,6.59
2019-02-06T00:12:07.314Z,6.57
2019-02-06T00:14:43.031Z,6.52
2019-02-06T00:17:16.845Z,6.49
2019-02-06T00:19:59.218Z,6.45
2019-02-06T00:22:35.688Z,6.38
2019-02-06T00:25:11.454Z,6.35
2019-02-06T00:27:42.465Z,6.32
2019-02-06T00:30:21.125Z,6.41
2019-02-06T00:32:54.502Z,6.38
2019-02-06T00:35:27.120Z,6.41
2019-02-06T00:38:05.329Z,6.41
2019-02-06T00:40:39.933Z,6.34
2019-02-06T00:43:15.698Z,6.34
2019-02-06T00:45:47.140Z,6.41
2019-02-06T00:48:28.664Z,6.43
2019-02-06T00:51:01.763Z,6.38
2019-02-06T00:53:36.975Z,6.33
2019-02-06T00:56:13.504Z,6.33
2019-02-06T00:58:48.034Z,6.36
2019-02-06T01:01:26.759Z,6.35
2019-02-06T01:04:00.358Z,6.28
2019-02-06T01:06:46.090Z,6.23
2019-02-06T01:09:22.683Z,6.17
2019-02-06T01:11:55.327Z,6.17
2019-02-06T01:14:27.783Z,6.17
2019-02-06T01:16:58.902Z,6.20
2019-02-06T01:20:23.275Z,6.27
2019-02-06T01:22:10.429Z,6.29
2019-02-06T01:24:41.405Z,6.28
2019-02-06T01:27:12.756Z,6.21
2019-02-06T01:29:47.001Z,6.20
2019-02-06T01:32:24.991Z,6.17
2019-02-06T01:35:00.372Z,6.19
2019-02-06T01:37:37.253Z,6.14
2019-02-06T01:40:07.866Z,6.09
2019-02-06T01:42:43.251Z,6.07
2019-02-06T01:45:17.899Z,6.01
2019-02-06T01:47:49.035Z,6.02
2019-02-06T01:50:27.364Z,6.02
2019-02-06T01:53:04.797Z,6.00
2019-02-06T01:55:43.050Z,5.98
2019-02-06T01:58:16.785Z,5.98
2019-02-06T02:01:11.553Z,5.90
2019-02-06T02:03:29.501Z,5.82
2019-02-06T02:06:02.783Z,5.74
2019-02-06T02:08:50.545Z,5.68
2019-02-06T02:11:26.009Z,5.67
2019-02-06T02:13:57.339Z,5.70
2019-02-06T02:16:36.705Z,5.70
2019-02-06T02:19:16.223Z,5.65
2019-02-06T02:21:46.221Z,5.54
2019-02-06T02:24:21.267Z,5.51
2019-02-06T02:26:52.037Z,5.47
2019-02-06T02:29:23.409Z,5.43
2019-02-06T02:32:12.881Z,5.38
2019-02-06T02:34:35.737Z,5.34
2019-02-06T02:37:08.448Z,5.32
2019-02-06T02:39:41.374Z,5.30
2019-02-06T02:42:16.623Z,5.26
2019-02-06T02:44:50.783Z,5.21
2019-02-06T02:47:27.008Z,5.18
2019-02-06T02:50:00.889Z,5.12
2019-02-06T02:52:33.021Z,5.05
2019-02-06T02:55:09.555Z,5.03
2019-02-06T02:57:53.874Z,5.00
2019-02-06T03:00:40.481Z,4.94
2019-02-06T03:03:27.404Z,4.89
2019-02-06T03:05:58.191Z,4.87
2019-02-06T03:08:31.281Z,4.87
2019-02-06T03:11:09.236Z,4.85
2019-02-06T03:13:48.523Z,4.80
2019-02-06T03:16:24.861Z,4.74
2019-02-06T03:18:59.862Z,4.71
2019-02-06T03:21:32.950Z,4.66
2019-02-06T03:24:05.226Z,4.60
2019-02-06T03:26:42.937Z,4.59
2019-02-06T03:29:22.192Z,4.57
2019-02-06T03:31:58.679Z,4.51
2019-02-06T03:34:30.016Z,4.50
2019-02-06T03:37:05.412Z,4.48
2019-02-06T03:39:36.736Z,4.42
2019-02-06T03:42:10.168Z,4.39
2019-02-06T03:44:42.912Z,4.41
2019-02-06T03:47:15.598Z,4.38
2019-02-06T03:49:50.606Z,4.32
2019-02-06T03:52:24.107Z,4.28
2019-02-06T03:54:55.130Z,4.22
2019-02-06T03:57:29.446Z,4.19
2019-02-06T04:00:05.569Z,4.17
2019-02-06T04:02:38.663Z,4.13
2019-02-06T04:05:11.885Z,4.11
2019-02-06T04:07:45.454Z,4.11
2019-02-06T04:10:22.462Z,4.08
2019-02-06T04:12:56.164Z,4.03
2019-02-06T04:15:29.277Z,4.00
2019-02-06T04:18:00.711Z,4.01
2019-02-06T04:20:32.793Z,3.97
2019-02-06T04:23:04.074Z,3.96
2019-02-06T04:25:38.733Z,3.92
2019-02-06T04:28:13.057Z,3.93
2019-02-06T04:30:47.419Z,3.93
2019-02-06T04:33:28.251Z,3.88
2019-02-06T04:35:58.908Z,3.80
2019-02-06T04:38:30.660Z,3.78
2019-02-06T04:41:01.819Z,3.78
2019-02-06T04:43:34.359Z,3.78
2019-02-06T04:46:07.834Z,3.78
2019-02-06T04:48:43.024Z,3.70
2019-02-06T04:51:14.068Z,3.68
2019-02-06T04:53:53.183Z,3.70
2019-02-06T04:56:24.136Z,3.70
2019-02-06T04:58:59.109Z,3.64
2019-02-06T05:01:36.833Z,3.62
2019-02-06T05:04:05.891Z,3.63
2019-02-06T05:06:46.603Z,3.63
2019-02-06T05:09:20.012Z,3.59
2019-02-06T05:11:51.314Z,3.54
2019-02-06T05:14:27.068Z,3.50
2019-02-06T05:17:00.663Z,3.44
2019-02-06T05:19:32.871Z,3.45
2019-02-06T05:22:05.759Z,3.41
2019-02-06T05:24:41.759Z,3.38
2019-02-06T05:27:12.734Z,3.39
2019-02-06T05:29:43.580Z,3.36
2019-02-06T05:32:15.795Z,3.33
2019-02-06T05:34:53.447Z,3.35
2019-02-06T05:37:32.226Z,3.27
2019-02-06T05:40:00.978Z,3.19
2019-02-06T05:42:43.886Z,3.18
2019-02-06T05:45:15.817Z,3.15
2019-02-06T05:47:46.762Z,3.11
2019-02-06T05:50:17.982Z,3.11
2019-02-06T05:52:52.765Z,3.09
2019-02-06T05:55:23.798Z,3.06
2019-02-06T05:57:58.115Z,3.04
2019-02-06T06:01:01.763Z,3.06
2019-02-06T06:03:20.357Z,3.02
2019-02-06T06:05:53.733Z,3.01
2019-02-06T06:08:25.225Z,3.04
2019-02-06T06:11:05.184Z,3.01
2019-02-06T06:13:37.312Z,2.97
2019-02-06T06:16:08.395Z,2.97
2019-02-06T06:18:41.071Z,2.99
2019-02-06T06:21:14.801Z,3.04
2019-02-06T06:23:50.015Z,3.08
2019-02-06T06:26:31.124Z,3.08
2019-02-06T06:29:02.035Z,3.08
2019-02-06T06:31:38.184Z,3.01
2019-02-06T06:34:09.109Z,2.96
2019-02-06T06:36:43.140Z,2.99
2019-02-06T06:39:14.386Z,2.96
2019-02-06T06:41:50.194Z,2.93
2019-02-06T06:44:25.027Z,2.89
2019-02-06T06:47:02.271Z,2.88
2019-02-06T06:49:35.951Z,2.91
2019-02-06T06:52:07.060Z,2.94
2019-02-06T06:54:43.440Z,2.95
2019-02-06T06:57:16.120Z,2.98
2019-02-06T06:59:55.868Z,2.99
2019-02-06T07:02:26.782Z,2.98
2019-02-06T07:04:57.896Z,3.04
2019-02-06T07:07:31.882Z,3.09
2019-02-06T07:10:03.168Z,3.08
2019-02-06T07:12:35.519Z,3.06
2019-02-06T07:15:14.449Z,3.08
2019-02-06T07:17:45.333Z,3.06
2019-02-06T07:20:22.633Z,3.15
2019-02-06T07:23:07.786Z,3.18
2019-02-06T07:25:41.098Z,3.18
2019-02-06T07:28:21.035Z,3.22
2019-02-06T07:30:56.535Z,3.26
2019-02-06T07:33:32.246Z,3.28
2019-02-06T07:36:13.731Z,3.40
2019-02-06T07:38:45.770Z,3.45
2019-02-06T07:41:19.220Z,3.42
2019-02-06T07:43:53.623Z,3.46
2019-02-06T07:46:30.765Z,3.50
2019-02-06T07:49:01.804Z,3.59
2019-02-06T07:51:34.050Z,3.63
2019-02-06T07:54:05.340Z,3.63
2019-02-06T07:56:40.735Z,3.63
2019-02-06T07:59:41.437Z,3.68
2019-02-06T08:02:33.416Z,3.74
2019-02-06T08:05:29.065Z,3.78
2019-02-06T08:07:58.686Z,3.83
2019-02-06T08:10:36.426Z,3.88
2019-02-06T08:13:19.504Z,3.97
2019-02-06T08:15:58.535Z,4.06
2019-02-06T08:19:04.699Z,4.15
2019-02-06T08:21:40.706Z,4.28
2019-02-06T08:24:22.633Z,4.42
2019-02-06T08:27:05.255Z,4.45
2019-02-06T08:29:44.945Z,4.52
2019-02-06T08:32:23.466Z,4.55
2019-02-06T08:34:56.771Z,4.56
2019-02-06T08:37:36.879Z,4.59
2019-02-06T08:40:26.622Z,4.61
2019-02-06T08:43:09.736Z,4.70
2019-02-06T08:45:55.833Z,4.73
2019-02-06T08:48:36.884Z,4.76
2019-02-06T08:51:10.804Z,4.82
2019-02-06T08:54:01.206Z,4.99
2019-02-06T08:56:41.865Z,5.13
2019-02-06T08:59:15.269Z,5.20
2019-02-06T09:01:49.487Z,5.32
2019-02-06T09:04:30.456Z,5.45
2019-02-06T09:07:17.670Z,5.45
2019-02-06T09:09:51.180Z,5.55
2019-02-06T09:12:27.675Z,5.68
2019-02-06T09:15:07.799Z,5.75
2019-02-06T09:17:42.337Z,5.80
2019-02-06T09:20:23.784Z,5.95
2019-02-06T09:22:52.829Z,6.06
2019-02-06T09:25:28.366Z,6.08
2019-02-06T09:27:59.703Z,6.10
2019-02-06T09:30:36.990Z,6.24
2019-02-06T09:33:08.462Z,6.34
2019-02-06T09:35:40.783Z,6.43
2019-02-06T09:38:11.740Z,6.52
2019-02-06T09:40:49.559Z,6.56
2019-02-06T09:43:21.022Z,6.53
2019-02-06T09:46:00.417Z,6.54
2019-02-06T09:48:33.714Z,6.57
2019-02-06T09:51:15.295Z,6.66
2019-02-06T09:53:55.706Z,6.72
2019-02-06T09:56:43.508Z,6.83
2019-02-06T09:59:16.684Z,7.04
2019-02-06T10:02:27.876Z,7.21
2019-02-06T10:04:53.907Z,7.21
2019-02-06T10:07:30.308Z,7.24
2019-02-06T10:10:19.325Z,7.44
2019-02-06T10:12:55.838Z,7.54
2019-02-06T10:15:36.476Z,7.66
2019-02-06T10:18:09.269Z,7.55
2019-02-06T10:21:02.743Z,7.53
2019-02-06T10:23:42.155Z,7.47
2019-02-06T10:26:20.939Z,7.45
2019-02-06T10:29:14.468Z,7.54
2019-02-06T10:31:46.223Z,7.82
2019-02-06T10:34:21.756Z,7.87
2019-02-06T10:36:54.963Z,8.10
2019-02-06T10:39:34.146Z,8.22
2019-02-06T10:42:03.983Z,8.20
2019-02-06T10:44:34.128Z,8.14
2019-02-06T10:47:10.680Z,8.21
2019-02-06T10:49:56.854Z,8.25
2019-02-06T10:52:30.296Z,8.36
2019-02-06T10:55:07.239Z,8.43
2019-02-06T10:58:10.075Z,8.43
2019-02-06T11:01:05.144Z,8.45
2019-02-06T11:07:09.152Z,8.52
2019-02-06T11:09:46.894Z,8.60
2019-02-06T11:12:42.547Z,8.75
2019-02-06T11:14:53.637Z,8.70
2019-02-06T11:17:35.089Z,8.75
2019-02-06T11:20:20.622Z,8.72
2019-02-06T11:22:52.788Z,8.74
2019-02-06T11:25:27.478Z,8.92
2019-02-06T11:28:03.472Z,9.15
2019-02-06T11:30:41.875Z,9.25
2019-02-06T11:33:18.546Z,9.48
2019-02-06T11:35:53.260Z,9.62
2019-02-06T11:38:48.104Z,9.52
2019-02-06T11:41:27.741Z,9.25
2019-02-06T11:44:01.701Z,9.04
2019-02-06T11:46:41.415Z,9.03
2019-02-06T11:49:20.781Z,9.03
2019-02-06T11:52:25.004Z,9.15
2019-02-06T11:54:53.487Z,9.17
2019-02-06T11:57:30.544Z,9.05
2019-02-06T12:00:10.744Z,9.12
2019-02-06T12:03:30.646Z,9.11
2019-02-06T12:06:53.946Z,9.05
2019-02-06T12:09:14.068Z,9.15
2019-02-06T12:11:49.116Z,9.13
2019-02-06T12:14:22.186Z,9.12
2019-02-06T12:17:31.618Z,9.25
2019-02-06T12:20:17.652Z,9.36
2019-02-06T12:22:48.497Z,9.41
2019-02-06T12:25:20.591Z,9.46
2019-02-06T12:27:59.481Z,9.51
2019-02-06T12:30:39.853Z,9.58
2019-02-06T12:33:13.683Z,9.66
2019-02-06T12:36:24.610Z,9.76
2019-02-06T12:38:58.107Z,9.78
2019-02-06T12:41:32.411Z,9.76
2019-02-06T12:44:06.556Z,9.69
2019-02-06T12:46:40.282Z,9.62
2019-02-06T12:49:15.130Z,9.55
2019-02-06T12:52:02.210Z,9.53
2019-02-06T12:54:56.331Z,9.51
2019-02-06T12:57:36.850Z,9.33
2019-02-06T13:00:17.383Z,9.23
2019-02-06T13:02:49.839Z,9.31
2019-02-06T13:05:33.905Z,9.29
2019-02-06T13:07:56.108Z,9.29
2019-02-06T13:10:33.936Z,9.36
2019-02-06T13:13:00.000Z,9.36
2019-02-06T13:15:30.926Z,9.30
2019-02-06T13:18:02.810Z,9.31
2019-02-06T13:20:51.434Z,9.43
2019-02-06T13:23:31.485Z,9.32
2019-02-06T13:26:08.963Z,9.38
2019-02-06T13:28:45.329Z,9.39
2019-02-06T13:31:19.004Z,9.43
2019-02-06T13:33:53.103Z,9.42
2019-02-06T13:36:24.565Z,9.41
2019-02-06T13:39:08.492Z,9.45
2019-02-06T13:41:41.468Z,9.44
2019-02-06T13:44:15.368Z,9.54
2019-02-06T13:46:53.172Z,9.56
2019-02-06T13:49:20.991Z,9.50
2019-02-06T13:51:59.558Z,9.48
2019-02-06T13:54:36.715Z,9.38
2019-02-06T13:57:07.805Z,9.38
2019-02-06T13:59:41.873Z,9.42
2019-02-06T14:02:13.580Z,9.33
2019-02-06T14:04:48.702Z,9.36
2019-02-06T14:07:20.765Z,9.42
2019-02-06T14:09:55.320Z,9.52
2019-02-06T14:12:30.514Z,9.53
2019-02-06T14:15:04.405Z,9.39
2019-02-06T14:17:55.574Z,9.35
2019-02-06T14:20:28.130Z,9.31
2019-02-06T14:23:12.851Z,9.27
2019-02-06T14:26:29.948Z,9.22
2019-02-06T14:30:00.445Z,9.12
2019-02-06T14:33:36.115Z,9.12
2019-02-06T14:37:11.448Z,9.08
2019-02-06T14:40:34.110Z,9.03
2019-02-06T14:44:04.735Z,9.00
2019-02-06T14:47:29.573Z,9.04
2019-02-06T14:50:36.754Z,9.09
2019-02-06T14:54:02.462Z,9.12
2019-02-06T14:57:16.896Z,9.12
2019-02-06T15:00:26.333Z,9.09
2019-02-06T15:04:07.657Z,9.07
2019-02-06T15:07:07.683Z,9.04
2019-02-06T15:10:34.417Z,9.09
2019-02-06T15:14:09.592Z,9.14
2019-02-06T15:17:50.508Z,9.14
2019-02-06T15:21:25.819Z,9.05
2019-02-06T15:24:58.475Z,8.97
2019-02-06T15:28:15.095Z,8.96
2019-02-06T15:31:46.949Z,8.96
2019-02-06T15:34:45.897Z,8.88
2019-02-06T15:38:24.915Z,8.84
2019-02-06T15:41:18.755Z,8.82
2019-02-06T15:44:34.288Z,8.80
2019-02-06T15:48:07.737Z,8.73
2019-02-06T15:52:05.420Z,8.72
2019-02-06T15:55:31.017Z,8.71
2019-02-06T15:58:58.166Z,8.65
2019-02-06T16:02:24.292Z,8.59
2019-02-06T16:05:56.727Z,8.53
2019-02-06T16:09:15.933Z,8.50
2019-02-06T16:12:43.001Z,8.48
2019-02-06T16:16:11.767Z,8.49
2019-02-06T16:19:32.460Z,8.47
2019-02-06T16:22:36.720Z,8.38
2019-02-06T16:25:46.520Z,8.30
2019-02-06T16:29:10.211Z,8.27
2019-02-06T16:32:29.521Z,8.25
2019-02-06T16:36:14.696Z,8.15
2019-02-06T16:39:31.120Z,8.03
2019-02-06T16:43:28.719Z,7.97
2019-02-06T16:50:37.607Z,7.83
2019-02-06T16:54:25.039Z,7.79
2019-02-06T16:58:08.789Z,7.71
2019-02-06T17:01:48.695Z,7.65
2019-02-06T17:05:02.520Z,7.53
2019-02-06T17:09:05.049Z,7.51
2019-02-06T17:12:58.463Z,7.42
2019-02-06T17:16:24.698Z,7.34
2019-02-06T17:20:07.004Z,7.31
2019-02-06T17:23:36.305Z,7.24
2019-02-06T17:26:48.604Z,7.22
2019-02-06T17:30:27.142Z,7.19
2019-02-06T17:33:49.970Z,7.12
2019-02-06T17:36:48.292Z,7.08
2019-02-06T17:40:16.269Z,7.06
2019-02-06T17:43:29.663Z,7.01
2019-02-06T17:46:42.696Z,6.97
2019-02-06T17:50:22.824Z,6.93
2019-02-06T17:54:02.136Z,6.85
2019-02-06T17:56:34.097Z,6.83
2019-02-06T17:59:08.006Z,6.82
2019-02-06T18:01:50.671Z,6.82
2019-02-06T18:04:31.793Z,6.83
2019-02-06T18:07:03.948Z,6.86
2019-02-06T18:09:34.852Z,6.87
2019-02-06T18:12:12.010Z,6.87
2019-02-06T18:14:50.799Z,6.87
2019-02-06T18:17:31.760Z,6.87
2019-02-06T18:20:10.821Z,6.89
2019-02-06T18:22:48.143Z,6.91
2019-02-06T18:25:24.481Z,6.89
2019-02-06T18:27:59.096Z,6.87
2019-02-06T18:30:32.703Z,6.84
2019-02-06T18:33:04.623Z,6.83
2019-02-06T18:35:38.370Z,6.82
2019-02-06T18:38:09.821Z,6.80
2019-02-06T18:40:46.180Z,6.80
2019-02-06T18:43:18.389Z,6.81
2019-02-06T18:45:49.392Z,6.79
2019-02-06T18:48:25.453Z,6.77
2019-02-06T18:50:57.752Z,6.75
2019-02-06T18:53:28.651Z,6.73
2019-02-06T18:55:59.798Z,6.75
2019-02-06T18:58:30.526Z,6.72
2019-02-06T19:01:02.393Z,6.68
2019-02-06T19:03:38.846Z,6.71
2019-02-06T19:06:10.203Z,6.63
2019-02-06T19:08:41.631Z,6.61
2019-02-06T19:11:12.742Z,6.55
2019-02-06T19:13:43.471Z,6.54
2019-02-06T19:16:16.372Z,6.51
2019-02-06T19:18:47.419Z,6.43
2019-02-06T19:21:38.242Z,6.38
2019-02-06T19:24:11.951Z,6.32
2019-02-06T19:26:42.237Z,6.28
2019-02-06T19:29:14.543Z,6.26
2019-02-06T19:31:45.888Z,6.25
2019-02-06T19:34:19.066Z,6.24
2019-02-06T19:36:51.348Z,6.23
2019-02-06T19:39:27.854Z,6.22
2019-02-06T19:42:08.201Z,6.22
2019-02-06T19:44:39.226Z,6.14
2019-02-06T19:47:10.164Z,6.10
2019-02-06T19:49:41.072Z,6.08
2019-02-06T19:52:12.358Z,6.00
2019-02-06T19:54:46.254Z,6.03
2019-02-06T19:57:17.409Z,5.99
2019-02-06T19:59:48.197Z,5.98
2019-02-06T20:02:25.895Z,5.93
2019-02-06T20:04:59.348Z,5.84
2019-02-06T20:07:34.433Z,5.83
2019-02-06T20:10:05.662Z,5.80
2019-02-06T20:12:38.726Z,5.73
2019-02-06T20:15:13.608Z,5.64
2019-02-06T20:17:44.224Z,5.61
2019-02-06T20:20:19.120Z,5.57
2019-02-06T20:22:51.117Z,5.55
2019-02-06T20:25:22.676Z,5.55
2019-02-06T20:27:56.505Z,5.49
2019-02-06T20:30:30.984Z,5.46
2019-02-06T20:33:01.857Z,5.44
2019-02-06T20:35:33.369Z,5.44
2019-02-06T20:38:04.961Z,5.45
2019-02-06T20:40:37.522Z,5.44
2019-02-06T20:43:21.455Z,5.42
2019-02-06T20:45:43.871Z,5.40
2019-02-06T20:48:14.673Z,5.42
2019-02-06T20:50:45.677Z,5.44
2019-02-06T20:53:19.441Z,5.43
2019-02-06T20:55:50.271Z,5.41
2019-02-06T20:58:21.114Z,5.39
2019-02-06T21:00:54.593Z,5.31
2019-02-06T21:03:25.855Z,5.29
2019-02-06T21:05:56.756Z,5.28
2019-02-06T21:08:30.358Z,5.23
2019-02-06T21:11:06.044Z,5.19
2019-02-06T21:13:39.194Z,5.14
2019-02-06T21:16:14.226Z,5.14
2019-02-06T21:18:48.844Z,5.19
2019-02-06T21:21:25.827Z,5.20
2019-02-06T21:23:59.272Z,5.19
2019-02-06T21:26:44.338Z,5.19
2019-02-06T21:29:17.539Z,5.19
2019-02-06T21:31:57.496Z,5.17
2019-02-06T21:34:31.297Z,5.12
2019-02-06T21:37:03.576Z,5.13
2019-02-06T21:39:36.441Z,5.17
2019-02-06T21:42:22.455Z,5.17
2019-02-06T21:45:05.884Z,5.12
2019-02-06T21:47:41.968Z,5.12
2019-02-06T21:50:21.539Z,5.04
2019-02-06T21:53:14.538Z,4.98
2019-02-06T21:55:50.168Z,4.90
2019-02-06T21:58:58.759Z,4.85
2019-02-06T22:01:24.339Z,4.81
2019-02-06T22:04:05.427Z,4.86
2019-02-06T22:06:38.183Z,4.81
2019-02-06T22:09:12.627Z,4.81
2019-02-06T22:11:44.713Z,4.76
2019-02-06T22:14:18.687Z,4.75
2019-02-06T22:16:52.593Z,4.72
2019-02-06T22:19:25.133Z,4.72
2019-02-06T22:21:55.970Z,4.71
2019-02-06T22:24:28.645Z,4.73
2019-02-06T22:27:00.813Z,4.74
2019-02-06T22:29:39.319Z,4.74
2019-02-06T22:32:12.155Z,4.75
2019-02-06T22:34:45.035Z,4.76
2019-02-06T22:37:16.064Z,4.78
2019-02-06T22:39:55.490Z,4.76
2019-02-06T22:42:28.088Z,4.78
2019-02-06T22:45:01.790Z,4.80
2019-02-06T22:47:34.073Z,4.80
2019-02-06T22:50:05.839Z,4.79
2019-02-06T22:52:37.278Z,4.80
2019-02-06T22:55:12.055Z,4.82
2019-02-06T22:57:42.952Z,4.84
2019-02-06T23:00:51.210Z,4.90
2019-02-06T23:03:36.953Z,4.95
2019-02-06T23:06:17.191Z,4.93
2019-02-06T23:08:57.506Z,4.96
2019-02-06T23:11:34.306Z,4.99
2019-02-06T23:14:17.147Z,5.05
2019-02-06T23:16:50.498Z,5.09
2019-02-06T23:19:29.068Z,5.11
2019-02-06T23:22:27.246Z,5.12
2019-02-06T23:25:15.845Z,5.06
2019-02-06T23:27:48.462Z,5.00
2019-02-06T23:30:30.395Z,5.04
2019-02-06T23:33:04.927Z,5.02
2019-02-06T23:35:37.989Z,5.01
2019-02-06T23:38:28.548Z,5.03
2019-02-06T23:41:08.555Z,5.02
2019-02-06T23:43:45.493Z,4.98
2019-02-06T23:46:21.795Z,4.93
2019-02-06T23:48:58.195Z,4.90
2019-02-06T23:51:35.984Z,4.86
2019-02-06T23:54:19.157Z,4.81
2019-02-06T23:56:51.899Z,4.80
2019-02-06T23:59:28.386Z,4.79
